createdAt,value
2019-04-01T00:02:09.622Z,10.58
2019-04-01T00:04:39.463Z,7.92
2019-04-01T00:07:27.206Z,9.35
2019-04-01T00:09:57.119Z,8.78
2019-04-01T00:12:28.549Z,10.08
2019-04-01T00:14:58.357Z,9.10
2019-04-01T00:17:28.212Z,9.50
2019-04-01T00:19:58.134Z,11.45
2019-04-01T00:22:28.029Z,8.15
2019-04-01T00:24:58.594Z,9.80
2019-04-01T00:27:28.435Z,7.62
2019-04-01T00:29:58.345Z,7.58
2019-04-01T00:32:30.648Z,10.80
2019-04-01T00:35:00.590Z,8.65
2019-04-01T00:38:07.026Z,7.15
2019-04-01T00:40:36.918Z,9.73
2019-04-01T00:43:17.569Z,8.60
2019-04-01T00:45:52.270Z,9.00
2019-04-01T00:48:22.098Z,8.83
2019-04-01T00:50:52.185Z,9.13
2019-04-01T00:53:22.155Z,10.88
2019-04-01T00:55:53.808Z,8.47
2019-04-01T00:58:23.678Z,7.58
2019-04-01T01:00:53.567Z,9.35
2019-04-01T01:03:23.405Z,8.85
2019-04-01T01:05:56.674Z,9.23
2019-04-01T01:08:29.498Z,10.10
2019-04-01T01:10:59.383Z,9.63
2019-04-01T01:13:29.217Z,9.30
2019-04-01T01:16:00.173Z,10.20
2019-04-01T01:18:29.938Z,7.83
2019-04-01T01:20:59.756Z,8.10
2019-04-01T01:23:29.525Z,10.50
2019-04-01T01:25:59.575Z,6.12
2019-04-01T01:28:32.085Z,8.03
2019-04-01T01:31:02.305Z,7.20
2019-04-01T01:33:32.125Z,9.33
2019-04-01T01:36:02.079Z,8.68
2019-04-01T01:38:31.857Z,10.38
2019-04-01T01:41:01.735Z,9.25
2019-04-01T01:43:31.639Z,7.17
2019-04-01T01:46:01.504Z,9.33
2019-04-01T01:48:34.388Z,7.53
2019-04-01T01:51:04.332Z,9.50
2019-04-01T01:53:35.105Z,8.98
2019-04-01T01:56:06.046Z,7.22
2019-04-01T01:58:36.615Z,8.43
2019-04-01T02:01:06.373Z,8.28
2019-04-01T02:03:37.307Z,8.63
2019-04-01T02:06:08.157Z,7.08
2019-04-01T02:08:38.163Z,7.03
2019-04-01T02:11:07.932Z,7.87
2019-04-01T02:13:37.813Z,11.05
2019-04-01T02:16:08.345Z,8.83
2019-04-01T02:18:40.850Z,8.88
2019-04-01T02:24:03.575Z,12.30
2019-04-01T02:26:33.356Z,8.95
2019-04-01T02:29:03.218Z,9.05
2019-04-01T02:31:33.138Z,7.08
2019-04-01T02:34:02.984Z,8.68
2019-04-01T02:36:51.886Z,10.72
2019-04-01T02:39:21.662Z,10.98
2019-04-01T02:41:51.566Z,8.23
2019-04-01T02:44:21.437Z,7.17
2019-04-01T02:47:09.474Z,9.47
2019-04-01T02:49:39.410Z,12.47
2019-04-01T02:52:09.240Z,9.38
2019-04-01T02:54:39.114Z,9.63
2019-04-01T02:57:09.093Z,10.25
2019-04-01T02:59:38.851Z,10.78
2019-04-01T03:02:08.669Z,8.90
2019-04-01T03:04:38.523Z,7.58
2019-04-01T03:07:10.349Z,12.17
2019-04-01T03:09:40.178Z,9.78
2019-04-01T03:12:10.113Z,9.25
2019-04-01T03:14:39.850Z,7.45
2019-04-01T03:17:30.443Z,8.98
2019-04-01T03:20:00.452Z,10.80
2019-04-01T03:22:33.472Z,10.20
2019-04-01T03:25:03.421Z,11.68
2019-04-01T03:27:35.697Z,8.58
2019-04-01T03:30:06.472Z,9.10
2019-04-01T03:32:44.648Z,11.18
2019-04-01T03:35:11.127Z,8.08
2019-04-01T03:37:40.936Z,9.28
2019-04-01T03:40:10.819Z,8.78
2019-04-01T03:42:40.693Z,8.33
2019-04-01T03:45:10.761Z,9.23
2019-04-01T03:47:40.650Z,9.00
2019-04-01T03:50:10.499Z,8.88
2019-04-01T03:52:40.515Z,10.35
2019-04-01T03:55:10.287Z,9.78
2019-04-01T03:57:40.253Z,7.12
2019-04-01T04:00:10.371Z,11.30
2019-04-01T04:02:40.276Z,10.93
2019-04-01T04:05:10.179Z,10.00
2019-04-01T04:07:43.478Z,9.33
2019-04-01T04:10:13.483Z,10.20
2019-04-01T04:12:43.469Z,7.70
2019-04-01T04:15:13.853Z,10.25
2019-04-01T04:17:43.751Z,8.35
2019-04-01T04:20:14.870Z,10.00
2019-04-01T04:22:44.772Z,9.03
2019-04-01T04:25:14.615Z,8.05
2019-04-01T04:27:44.418Z,7.85
2019-04-01T04:30:17.285Z,7.85
2019-04-01T04:32:47.146Z,8.68
2019-04-01T04:35:17.009Z,8.05
2019-04-01T04:37:46.883Z,10.63
2019-04-01T04:40:20.646Z,7.43
2019-04-01T04:43:27.601Z,8.45
2019-04-01T04:46:28.972Z,7.40
2019-04-01T04:48:58.784Z,9.73
2019-04-01T04:51:28.532Z,9.58
2019-04-01T04:53:58.382Z,6.67
2019-04-01T04:56:28.307Z,9.10
2019-04-01T04:58:58.102Z,10.82
2019-04-01T05:01:31.586Z,13.10
2019-04-01T05:04:01.515Z,9.23
2019-04-01T05:06:31.455Z,9.10
2019-04-01T05:09:01.292Z,7.83
2019-04-01T05:11:32.689Z,11.35
2019-04-01T05:14:02.555Z,12.30
2019-04-01T05:16:32.511Z,7.87
2019-04-01T05:19:02.348Z,11.45
2019-04-01T05:21:33.774Z,10.43
2019-04-01T05:24:03.622Z,7.83
2019-04-01T05:26:35.544Z,12.10
2019-04-01T05:29:05.720Z,7.55
2019-04-01T05:31:38.409Z,12.93
2019-04-01T05:34:10.127Z,10.35
2019-04-01T05:36:42.011Z,9.40
2019-04-01T05:39:11.836Z,7.60
2019-04-01T05:41:42.046Z,10.95
2019-04-01T05:44:11.874Z,7.65
2019-04-01T05:46:41.783Z,11.05
2019-04-01T05:49:11.594Z,8.43
2019-04-01T05:51:41.546Z,9.48
2019-04-01T05:54:11.318Z,7.43
2019-04-01T05:56:42.378Z,9.23
2019-04-01T05:59:12.197Z,10.25
2019-04-01T06:01:43.734Z,8.40
2019-04-01T06:04:13.605Z,10.15
2019-04-01T06:06:44.543Z,10.23
2019-04-01T06:09:14.410Z,11.03
2019-04-01T06:11:44.323Z,10.80
2019-04-01T06:14:14.641Z,9.70
2019-04-01T06:16:44.587Z,6.47
2019-04-01T06:19:14.747Z,11.88
2019-04-01T06:21:46.231Z,12.55
2019-04-01T06:24:16.049Z,9.40
2019-04-01T06:26:45.870Z,11.33
2019-04-01T06:29:15.638Z,8.20
2019-04-01T06:31:45.547Z,7.47
2019-04-01T06:34:15.429Z,7.42
2019-04-01T06:36:45.330Z,7.33
2019-04-01T06:39:15.041Z,7.25
2019-04-01T06:41:44.876Z,10.50
2019-04-01T06:44:16.313Z,10.82
2019-04-01T06:46:46.295Z,10.13
2019-04-01T06:49:16.269Z,10.30
2019-04-01T06:51:48.119Z,10.53
2019-04-01T06:54:17.693Z,11.30
2019-04-01T06:56:47.645Z,10.30
2019-04-01T06:59:17.544Z,12.27
2019-04-01T07:01:47.365Z,8.35
2019-04-01T07:04:17.276Z,10.75
2019-04-01T07:06:49.587Z,10.30
2019-04-01T07:09:19.877Z,10.88
2019-04-01T07:11:49.731Z,9.15
2019-04-01T07:14:21.705Z,8.37
2019-04-01T07:16:53.264Z,12.10
2019-04-01T07:19:26.436Z,8.45
2019-04-01T07:21:56.338Z,10.90
2019-04-01T07:24:26.153Z,7.70
2019-04-01T07:26:56.070Z,9.18
2019-04-01T07:29:25.992Z,9.98
2019-04-01T07:31:55.909Z,7.12
2019-04-01T07:34:25.830Z,9.40
2019-04-01T07:36:55.633Z,8.95
2019-04-01T07:39:25.540Z,8.80
2019-04-01T07:41:55.321Z,12.35
2019-04-01T07:44:26.657Z,10.23
2019-04-01T07:46:58.473Z,12.90
2019-04-01T07:49:28.363Z,13.93
2019-04-01T07:51:58.176Z,11.48
2019-04-01T07:54:28.199Z,10.28
2019-04-01T07:56:59.020Z,7.90
2019-04-01T07:59:28.842Z,10.43
2019-04-01T08:01:59.333Z,13.13
2019-04-01T08:04:29.266Z,10.05
2019-04-01T08:07:20.057Z,9.73
2019-04-01T08:09:49.961Z,10.50
2019-04-01T08:12:19.734Z,8.23
2019-04-01T08:14:49.613Z,9.48
2019-04-01T08:17:19.408Z,11.50
2019-04-01T08:19:51.108Z,12.68
2019-04-01T08:22:21.429Z,11.70
2019-04-01T08:24:51.331Z,10.72
2019-04-01T08:27:21.390Z,9.60
2019-04-01T08:29:52.738Z,8.83
2019-04-01T08:32:22.559Z,10.53
2019-04-01T08:34:52.488Z,9.88
2019-04-01T08:37:22.381Z,10.65
2019-04-01T08:39:52.188Z,12.07
2019-04-01T08:42:22.053Z,12.53
2019-04-01T08:44:51.913Z,7.72
2019-04-01T08:47:21.963Z,10.45
2019-04-01T08:49:53.100Z,9.15
2019-04-01T08:52:22.971Z,8.18
2019-04-01T08:54:53.008Z,7.22
2019-04-01T08:57:22.829Z,9.93
2019-04-01T08:59:56.081Z,8.07
2019-04-01T09:02:24.444Z,8.75
2019-04-01T09:04:54.265Z,9.88
2019-04-01T09:07:26.254Z,9.23
2019-04-01T09:09:57.761Z,9.57
2019-04-01T09:12:29.466Z,13.78
2019-04-01T09:14:59.754Z,13.10
2019-04-01T09:17:29.706Z,9.23
2019-04-01T09:19:59.594Z,9.53
2019-04-01T09:22:29.509Z,9.68
2019-04-01T09:24:59.328Z,11.22
2019-04-01T09:27:29.247Z,9.93
2019-04-01T09:30:00.471Z,10.30
2019-04-01T09:32:30.341Z,8.25
2019-04-01T09:35:00.516Z,8.53
2019-04-01T09:37:31.407Z,9.90
2019-04-01T09:40:01.299Z,9.60
2019-04-01T09:42:31.078Z,8.28
2019-04-01T09:45:00.958Z,10.45
2019-04-01T09:47:30.786Z,11.00
2019-04-01T09:50:00.712Z,11.88
2019-04-01T09:52:30.505Z,10.18
2019-04-01T09:55:00.460Z,10.58
2019-04-01T09:57:30.387Z,12.47
2019-04-01T10:00:00.360Z,10.43
2019-04-01T10:02:32.022Z,15.45
2019-04-01T10:05:01.816Z,12.35
2019-04-01T10:07:31.653Z,11.20
2019-04-01T10:10:01.564Z,12.15
2019-04-01T10:12:31.306Z,13.10
2019-04-01T10:15:01.212Z,11.22
2019-04-01T10:17:31.064Z,11.93
2019-04-01T10:20:01.555Z,13.10
2019-04-01T10:22:32.605Z,13.53
2019-04-01T10:25:02.457Z,11.12
2019-04-01T10:27:32.233Z,11.97
2019-04-01T10:30:02.218Z,12.23
2019-04-01T10:32:32.066Z,12.30
2019-04-01T10:35:01.980Z,16.02
2019-04-01T10:37:37.564Z,15.68
2019-04-01T10:40:08.946Z,15.35
2019-04-01T10:42:38.740Z,15.15
2019-04-01T10:45:10.261Z,15.25
2019-04-01T10:47:45.882Z,16.45
2019-04-01T10:50:16.015Z,16.37
2019-04-01T10:52:50.185Z,15.00
2019-04-01T10:55:20.057Z,12.03
2019-04-01T10:57:53.547Z,14.15
2019-04-01T11:00:22.220Z,14.78
2019-04-01T11:02:53.223Z,14.63
2019-04-01T11:05:23.160Z,14.73
2019-04-01T11:07:53.107Z,15.05
2019-04-01T11:10:24.917Z,12.90
2019-04-01T11:12:54.673Z,15.70
2019-04-01T11:15:24.663Z,13.05
2019-04-01T11:17:54.474Z,14.07
2019-04-01T11:20:26.761Z,12.18
2019-04-01T11:22:56.522Z,14.03
2019-04-01T11:25:28.520Z,14.27
2019-04-01T11:27:58.476Z,14.73
2019-04-01T11:30:28.289Z,14.93
2019-04-01T11:32:59.162Z,13.43
2019-04-01T11:35:29.301Z,13.65
2019-04-01T11:37:59.258Z,15.07
2019-04-01T11:40:29.151Z,12.95
2019-04-01T11:42:59.124Z,12.78
2019-04-01T11:45:28.949Z,13.48
2019-04-01T11:47:58.859Z,11.30
2019-04-01T11:50:28.697Z,13.08
2019-04-01T11:52:58.573Z,12.60
2019-04-01T11:55:28.560Z,15.57
2019-04-01T11:57:58.450Z,16.12
2019-04-01T12:00:28.257Z,14.00
2019-04-01T12:02:58.160Z,12.58
2019-04-01T12:05:28.034Z,15.03
2019-04-01T12:07:57.825Z,14.78
2019-04-01T12:10:27.678Z,13.93
2019-04-01T12:12:57.530Z,11.90
2019-04-01T12:15:27.358Z,12.35
2019-04-01T12:17:57.245Z,12.90
2019-04-01T12:20:27.082Z,14.80
2019-04-01T12:22:56.896Z,13.25
2019-04-01T12:25:44.659Z,13.95
2019-04-01T12:28:14.503Z,13.03
2019-04-01T12:30:44.239Z,15.43
2019-04-01T12:33:14.160Z,14.83
2019-04-01T12:35:43.953Z,16.02
2019-04-01T12:38:13.791Z,15.13
2019-04-01T12:40:43.617Z,14.03
2019-04-01T12:43:13.478Z,14.00
2019-04-01T12:45:43.356Z,14.83
2019-04-01T12:48:13.195Z,15.68
2019-04-01T12:50:43.096Z,18.10
2019-04-01T12:53:12.916Z,16.00
2019-04-01T12:55:44.963Z,16.80
2019-04-01T12:58:17.643Z,16.90
2019-04-01T13:00:46.320Z,17.42
2019-04-01T13:03:16.182Z,15.27
2019-04-01T13:05:47.112Z,18.42
2019-04-01T13:08:16.945Z,17.27
2019-04-01T13:10:46.842Z,16.23
2019-04-01T13:13:16.618Z,18.20
2019-04-01T13:15:48.475Z,15.28
2019-04-01T13:18:18.960Z,16.77
2019-04-01T13:20:51.785Z,16.82
2019-04-01T13:23:20.431Z,16.37
2019-04-01T13:25:52.303Z,17.07
2019-04-01T13:28:22.087Z,17.30
2019-04-01T13:30:51.872Z,17.23
2019-04-01T13:33:23.193Z,18.15
2019-04-01T13:35:53.216Z,17.73
2019-04-01T13:38:23.109Z,18.92
2019-04-01T13:40:52.949Z,18.62
2019-04-01T13:43:22.722Z,19.82
2019-04-01T13:45:54.666Z,18.33
2019-04-01T13:48:24.494Z,18.60
2019-04-01T13:50:54.270Z,19.73
2019-04-01T13:53:24.029Z,16.67
2019-04-01T13:55:56.029Z,19.15
2019-04-01T13:58:25.918Z,18.42
2019-04-01T14:00:57.391Z,18.30
2019-04-01T14:03:27.313Z,20.20
2019-04-01T14:05:57.219Z,19.92
2019-04-01T14:08:26.969Z,16.73
2019-04-01T14:10:56.696Z,20.40
2019-04-01T14:13:26.685Z,19.48
2019-04-01T14:15:57.523Z,20.40
2019-04-01T14:18:27.458Z,18.10
2019-04-01T14:20:57.189Z,17.43
2019-04-01T14:23:27.066Z,17.57
2019-04-01T14:25:56.812Z,19.52
2019-04-01T14:28:26.696Z,20.97
2019-04-01T14:30:56.534Z,18.73
2019-04-01T14:33:26.436Z,19.50
2019-04-01T14:35:56.198Z,17.98
2019-04-01T14:38:26.010Z,18.05
2019-04-01T14:40:58.152Z,18.17
2019-04-01T14:43:30.920Z,17.07
2019-04-01T14:45:58.932Z,22.17
2019-04-01T14:48:28.745Z,17.92
2019-04-01T14:50:59.715Z,21.63
2019-04-01T14:53:29.500Z,20.23
2019-04-01T14:56:00.353Z,19.25
2019-04-01T14:58:30.139Z,21.03
2019-04-01T15:01:01.391Z,20.48
2019-04-01T15:03:31.560Z,20.68
2019-04-01T15:06:01.412Z,21.93
2019-04-01T15:08:31.345Z,20.25
2019-04-01T15:11:01.185Z,21.40
2019-04-01T15:13:31.072Z,19.90
2019-04-01T15:16:01.912Z,17.73
2019-04-01T15:18:34.344Z,20.35
2019-04-01T15:21:03.205Z,19.17
2019-04-01T15:23:33.067Z,19.45
2019-04-01T15:26:03.802Z,19.85
2019-04-01T15:28:34.114Z,20.12
2019-04-01T15:31:03.981Z,19.93
2019-04-01T15:33:33.865Z,22.42
2019-04-01T15:36:04.265Z,19.15
2019-04-01T15:38:34.297Z,20.35
2019-04-01T15:41:04.239Z,19.95
2019-04-01T15:43:34.129Z,22.13
2019-04-01T15:46:04.356Z,22.37
2019-04-01T15:48:34.833Z,22.73
2019-04-01T15:51:04.672Z,20.97
2019-04-01T15:53:34.885Z,24.63
2019-04-01T15:56:05.282Z,20.08
2019-04-01T15:58:35.085Z,19.42
2019-04-01T16:01:05.112Z,20.37
2019-04-01T16:03:35.017Z,19.82
2019-04-01T16:06:07.609Z,22.48
2019-04-01T16:08:36.465Z,22.05
2019-04-01T16:11:06.272Z,20.57
2019-04-01T16:13:36.166Z,19.93
2019-04-01T16:16:06.998Z,24.15
2019-04-01T16:18:36.971Z,21.37
2019-04-01T16:21:06.731Z,22.83
2019-04-01T16:23:36.593Z,22.90
2019-04-01T16:26:09.322Z,25.20
2019-04-01T16:28:37.950Z,22.70
2019-04-01T16:31:07.764Z,22.95
2019-04-01T16:33:37.516Z,21.37
2019-04-01T16:36:07.545Z,23.83
2019-04-01T16:38:37.392Z,22.27
2019-04-01T16:41:07.299Z,20.90
2019-04-01T16:43:38.317Z,18.92
2019-04-01T16:46:08.477Z,25.80
2019-04-01T16:48:38.650Z,23.80
2019-04-01T16:51:08.645Z,20.83
2019-04-01T16:53:38.546Z,21.30
2019-04-01T16:56:08.444Z,23.77
2019-04-01T16:58:38.289Z,21.63
2019-04-01T17:01:08.184Z,23.50
2019-04-01T17:03:38.030Z,24.50
2019-04-01T17:06:07.879Z,21.27
2019-04-01T17:08:39.163Z,24.65
2019-04-01T17:11:09.179Z,23.18
2019-04-01T17:13:39.005Z,25.50
2019-04-01T17:16:08.915Z,25.85
2019-04-01T17:18:39.220Z,24.00
2019-04-01T17:21:09.040Z,24.55
2019-04-01T17:23:41.801Z,20.77
2019-04-01T17:26:10.313Z,27.05
2019-04-01T17:28:40.196Z,25.97
2019-04-01T17:31:10.037Z,27.17
2019-04-01T17:33:39.875Z,23.18
2019-04-01T17:36:10.938Z,22.80
2019-04-01T17:38:41.057Z,22.62
2019-04-01T17:41:10.989Z,23.27
2019-04-01T17:43:40.880Z,24.98
2019-04-01T17:46:10.737Z,25.90
2019-04-01T17:48:40.688Z,22.10
2019-04-01T17:51:10.483Z,22.20
2019-04-01T17:53:40.291Z,22.17
2019-04-01T17:56:10.053Z,24.98
2019-04-01T17:58:39.904Z,22.35
2019-04-01T18:01:10.544Z,24.02
2019-04-01T18:03:40.770Z,23.98
2019-04-01T18:06:10.609Z,24.07
2019-04-01T18:08:40.419Z,25.00
2019-04-01T18:11:10.338Z,24.02
2019-04-01T18:13:40.234Z,25.20
2019-04-01T18:16:10.220Z,22.52
2019-04-01T18:18:40.895Z,23.73
2019-04-01T18:21:10.741Z,21.57
2019-04-01T18:23:40.614Z,24.40
2019-04-01T18:26:10.552Z,25.97
2019-04-01T18:28:41.240Z,22.60
2019-04-01T18:31:11.330Z,26.77
2019-04-01T18:33:55.361Z,23.42
2019-04-01T18:36:13.602Z,24.63
2019-04-01T18:38:43.367Z,25.60
2019-04-01T18:41:13.293Z,24.87
2019-04-01T18:43:43.092Z,25.90
2019-04-01T18:46:13.177Z,22.37
2019-04-01T18:48:43.025Z,22.93
2019-04-01T18:51:12.860Z,25.20
2019-04-01T18:53:42.673Z,26.93
2019-04-01T18:56:12.599Z,25.50
2019-04-01T18:58:42.435Z,24.55
2019-04-01T19:01:12.335Z,23.73
2019-04-01T19:03:43.060Z,25.32
2019-04-01T19:06:13.105Z,24.82
2019-04-01T19:08:42.968Z,25.80
2019-04-01T19:11:12.746Z,25.10
2019-04-01T19:13:42.750Z,27.67
2019-04-01T19:16:16.655Z,24.98
2019-04-01T19:18:46.000Z,25.30
2019-04-01T19:21:15.860Z,25.45
2019-04-01T19:23:45.713Z,24.75
2019-04-01T19:26:15.589Z,25.70
2019-04-01T19:28:47.066Z,24.18
2019-04-01T19:31:17.046Z,24.13
2019-04-01T19:33:46.796Z,22.58
2019-04-01T19:36:16.611Z,27.13
2019-04-01T19:38:46.568Z,21.75
2019-04-01T19:41:16.336Z,24.45
2019-04-01T19:43:46.229Z,23.67
2019-04-01T19:46:17.013Z,22.65
2019-04-01T19:48:47.833Z,25.65
2019-04-01T19:51:17.605Z,23.53
2019-04-01T19:53:47.513Z,23.75
2019-04-01T19:56:17.317Z,24.02
2019-04-01T19:58:47.125Z,22.87
2019-04-01T20:01:17.031Z,26.17
2019-04-01T20:03:46.809Z,24.72
2019-04-01T20:06:17.462Z,25.32
2019-04-01T20:08:49.684Z,24.67
2019-04-01T20:11:19.741Z,23.90
2019-04-01T20:13:49.637Z,26.12
2019-04-01T20:16:19.362Z,26.05
2019-04-01T20:18:49.219Z,24.45
2019-04-01T20:21:19.049Z,24.40
2019-04-01T20:23:48.963Z,24.90
2019-04-01T20:26:18.710Z,25.82
2019-04-01T20:28:48.496Z,25.87
2019-04-01T20:31:18.269Z,25.55
2019-04-01T20:33:49.165Z,26.93
2019-04-01T20:36:28.532Z,26.87
2019-04-01T20:38:50.806Z,26.55
2019-04-01T20:41:21.203Z,27.93
2019-04-01T20:43:51.401Z,26.97
2019-04-01T20:46:21.181Z,26.33
2019-04-01T20:48:51.073Z,25.45
2019-04-01T20:51:20.913Z,29.02
2019-04-01T20:53:51.348Z,25.97
2019-04-01T20:56:22.424Z,27.48
2019-04-01T20:58:52.229Z,25.30
2019-04-01T21:01:21.997Z,26.57
2019-04-01T21:03:51.870Z,25.48
2019-04-01T21:06:22.080Z,25.43
2019-04-01T21:08:53.812Z,26.17
2019-04-01T21:11:23.724Z,26.02
2019-04-01T21:13:54.869Z,24.35
2019-04-01T21:16:24.721Z,25.88
2019-04-01T21:18:54.704Z,28.05
2019-04-01T21:21:24.550Z,28.62
2019-04-01T21:23:54.429Z,24.92
2019-04-01T21:26:27.774Z,26.02
2019-04-01T21:28:57.669Z,25.88
2019-04-01T21:31:29.360Z,25.77
2019-04-01T21:33:59.258Z,27.17
2019-04-01T21:36:29.068Z,25.35
2019-04-01T21:38:58.898Z,27.37
2019-04-01T21:41:28.646Z,26.17
2019-04-01T21:43:58.415Z,27.00
2019-04-01T21:46:28.323Z,24.75
2019-04-01T21:48:59.694Z,25.50
2019-04-01T21:51:29.529Z,26.95
2019-04-01T21:53:59.920Z,26.40
2019-04-01T21:56:29.871Z,23.65
2019-04-01T21:58:59.611Z,29.00
2019-04-01T22:01:29.727Z,27.90
2019-04-01T22:04:00.551Z,29.72
2019-04-01T22:06:30.275Z,28.17
2019-04-01T22:09:00.060Z,27.95
2019-04-01T22:11:30.057Z,26.68
2019-04-01T22:13:59.858Z,27.33
2019-04-01T22:16:29.707Z,28.38
2019-04-01T22:19:00.563Z,28.70
2019-04-01T22:21:30.428Z,29.63
2019-04-01T22:24:01.294Z,28.15
2019-04-01T22:26:32.120Z,26.97
2019-04-01T22:29:01.959Z,30.67
2019-04-01T22:31:31.751Z,31.73
2019-04-01T22:34:01.535Z,29.48
2019-04-01T22:36:31.539Z,29.30
2019-04-01T22:39:01.432Z,27.25
2019-04-01T22:41:32.729Z,26.23
2019-04-01T22:44:02.462Z,27.52
2019-04-01T22:46:34.462Z,30.53
2019-04-01T22:49:05.096Z,29.82
2019-04-01T22:51:34.948Z,28.07
2019-04-01T22:54:04.792Z,28.30
2019-04-01T22:56:34.626Z,32.08
2019-04-01T22:59:04.343Z,28.07
2019-04-01T23:01:34.314Z,28.17
2019-04-01T23:04:04.091Z,30.15
2019-04-01T23:06:35.374Z,29.80
2019-04-01T23:09:07.047Z,30.23
2019-04-01T23:11:36.839Z,29.60
2019-04-01T23:14:07.590Z,31.30
2019-04-01T23:16:37.413Z,31.70
2019-04-01T23:19:07.167Z,30.48
2019-04-01T23:21:36.970Z,30.00
2019-04-01T23:24:07.755Z,29.82
2019-04-01T23:26:37.610Z,32.20
2019-04-01T23:29:07.338Z,34.05
2019-04-01T23:31:38.489Z,30.75
2019-04-01T23:34:08.368Z,31.27
2019-04-01T23:36:38.241Z,30.62
2019-04-01T23:39:08.432Z,29.85
2019-04-01T23:41:38.207Z,33.20
2019-04-01T23:44:07.978Z,31.42
2019-04-01T23:46:37.775Z,31.00
2019-04-01T23:49:07.578Z,32.65
2019-04-01T23:51:37.346Z,31.80
2019-04-01T23:54:07.070Z,31.60
2019-04-01T23:56:36.901Z,32.85
2019-04-01T23:59:06.671Z,32.97
